createdAt,value
2018-12-15T00:01:15.496Z,33.10
2018-12-15T00:03:43.178Z,27.03
2018-12-15T00:06:10.849Z,31.90
2018-12-15T00:08:38.468Z,27.23
2018-12-15T00:11:06.175Z,31.50
2018-12-15T00:13:33.835Z,28.50
2018-12-15T00:16:01.424Z,31.17
2018-12-15T00:18:29.068Z,32.53
2018-12-15T00:20:56.895Z,26.37
2018-12-15T00:23:24.687Z,36.97
2018-12-15T00:25:52.356Z,23.80
2018-12-15T00:28:20.016Z,27.90
2018-12-15T00:30:47.685Z,29.50
2018-12-15T00:33:15.335Z,26.83
2018-12-15T00:35:43.012Z,33.07
2018-12-15T00:38:10.663Z,25.83
2018-12-15T00:40:38.336Z,28.13
2018-12-15T00:43:05.927Z,32.00
2018-12-15T00:45:33.550Z,30.47
2018-12-15T00:48:01.220Z,34.77
2018-12-15T00:50:28.875Z,29.17
2018-12-15T00:52:56.463Z,30.80
2018-12-15T00:55:24.076Z,27.40
2018-12-15T00:57:51.772Z,26.83
2018-12-15T01:00:19.435Z,29.60
2018-12-15T01:02:47.087Z,22.97
2018-12-15T01:05:14.704Z,29.30
2018-12-15T01:07:42.296Z,28.27
2018-12-15T01:10:09.978Z,28.60
2018-12-15T01:12:37.644Z,23.90
2018-12-15T01:15:05.310Z,26.80
2018-12-15T01:17:32.959Z,30.60
2018-12-15T01:20:00.636Z,24.13
2018-12-15T01:22:28.291Z,26.33
2018-12-15T01:24:55.955Z,25.40
2018-12-15T01:27:23.615Z,21.77
2018-12-15T01:29:51.383Z,25.10
2018-12-15T01:32:19.256Z,25.00
2018-12-15T01:34:46.924Z,24.10
2018-12-15T01:37:14.572Z,27.03
2018-12-15T01:39:42.239Z,24.00
2018-12-15T01:42:09.903Z,22.73
2018-12-15T01:44:37.563Z,22.73
2018-12-15T01:47:05.227Z,27.67
2018-12-15T01:49:32.807Z,27.47
2018-12-15T01:52:00.462Z,22.70
2018-12-15T01:54:28.091Z,19.30
2018-12-15T01:56:55.695Z,24.77
2018-12-15T01:59:23.343Z,21.03
2018-12-15T02:01:51.000Z,20.33
2018-12-15T02:04:18.668Z,20.43
2018-12-15T02:06:46.271Z,19.93
2018-12-15T02:09:13.888Z,23.47
2018-12-15T02:11:41.556Z,18.23
2018-12-15T02:14:09.222Z,18.67
2018-12-15T02:16:36.875Z,18.10
2018-12-15T02:19:04.513Z,21.67
2018-12-15T02:21:32.193Z,17.10
2018-12-15T02:23:59.829Z,17.20
2018-12-15T02:26:27.532Z,18.40
2018-12-15T02:28:55.121Z,16.73
2018-12-15T02:31:24.101Z,19.30
2018-12-15T02:33:51.856Z,24.77
2018-12-15T02:36:19.502Z,16.57
2018-12-15T02:38:47.175Z,24.53
2018-12-15T02:41:15.083Z,21.07
2018-12-15T02:43:42.802Z,18.73
2018-12-15T02:46:10.468Z,22.10
2018-12-15T02:48:38.143Z,17.43
2018-12-15T02:51:05.804Z,16.90
2018-12-15T02:53:33.464Z,20.93
2018-12-15T02:56:01.138Z,18.23
2018-12-15T02:58:28.788Z,23.97
2018-12-15T03:00:56.451Z,19.67
2018-12-15T03:03:24.117Z,19.43
2018-12-15T03:05:52.166Z,18.83
2018-12-15T03:08:19.843Z,19.20
2018-12-15T03:10:47.437Z,18.10
2018-12-15T03:13:15.070Z,17.50
2018-12-15T03:15:42.731Z,21.40
2018-12-15T03:18:10.350Z,20.30
2018-12-15T03:20:37.936Z,16.80
2018-12-15T03:23:05.617Z,21.50
2018-12-15T03:25:33.240Z,20.43
2018-12-15T03:28:00.852Z,19.00
2018-12-15T03:30:28.442Z,16.57
2018-12-15T03:32:56.078Z,16.60
2018-12-15T03:35:23.719Z,16.90
2018-12-15T03:37:51.387Z,17.50
2018-12-15T03:40:19.062Z,18.60
2018-12-15T03:42:46.666Z,19.87
2018-12-15T03:45:14.370Z,14.00
2018-12-15T03:47:41.959Z,16.80
2018-12-15T03:50:09.611Z,17.80
2018-12-15T03:52:37.200Z,27.80
2018-12-15T03:55:04.926Z,24.33
2018-12-15T03:57:32.605Z,18.97
2018-12-15T04:00:00.260Z,21.97
2018-12-15T04:02:27.917Z,18.40
2018-12-15T04:04:55.581Z,15.37
2018-12-15T04:07:23.170Z,15.93
2018-12-15T04:09:50.805Z,18.27
2018-12-15T04:12:18.469Z,18.67
2018-12-15T04:14:46.128Z,16.40
2018-12-15T04:17:13.752Z,15.97
2018-12-15T04:19:41.369Z,16.43
2018-12-15T04:22:18.452Z,16.20
2018-12-15T04:24:46.405Z,18.50
2018-12-15T04:27:14.084Z,18.97
2018-12-15T04:29:41.705Z,17.10
2018-12-15T04:32:09.358Z,19.63
2018-12-15T04:34:36.964Z,18.90
2018-12-15T04:37:04.556Z,21.83
2018-12-15T04:39:32.279Z,18.80
2018-12-15T04:41:59.948Z,16.37
2018-12-15T04:44:27.612Z,18.13
2018-12-15T04:46:55.444Z,21.17
2018-12-15T04:49:23.135Z,22.27
2018-12-15T04:51:50.723Z,24.13
2018-12-15T04:54:18.317Z,15.90
2018-12-15T04:56:46.029Z,18.67
2018-12-15T04:59:13.683Z,18.23
2018-12-15T05:01:41.342Z,15.60
2018-12-15T05:04:09.015Z,15.63
2018-12-15T05:06:36.769Z,18.70
2018-12-15T05:09:06.378Z,17.60
2018-12-15T05:11:34.057Z,22.97
2018-12-15T05:14:01.718Z,29.37
2018-12-15T05:16:29.383Z,20.23
2018-12-15T05:18:57.034Z,24.90
2018-12-15T05:21:24.694Z,21.00
2018-12-15T05:23:52.369Z,23.03
2018-12-15T05:26:20.023Z,17.40
2018-12-15T05:28:47.696Z,17.03
2018-12-15T05:31:15.356Z,21.17
2018-12-15T05:33:43.015Z,31.40
2018-12-15T05:36:10.670Z,17.53
2018-12-15T05:38:38.353Z,23.33
2018-12-15T05:41:06.008Z,19.93
2018-12-15T05:43:33.663Z,22.83
2018-12-15T05:46:01.327Z,27.50
2018-12-15T05:48:29.195Z,27.27
2018-12-15T05:50:57.163Z,22.40
2018-12-15T05:53:24.827Z,21.20
2018-12-15T05:55:52.455Z,25.50
2018-12-15T05:58:20.160Z,28.57
2018-12-15T06:00:47.825Z,22.73
2018-12-15T06:03:15.494Z,27.77
2018-12-15T06:05:43.154Z,20.43
2018-12-15T06:08:10.776Z,22.13
2018-12-15T06:10:38.477Z,22.87
2018-12-15T06:13:06.141Z,20.80
2018-12-15T06:15:33.814Z,22.40
2018-12-15T06:18:01.427Z,20.43
2018-12-15T06:20:29.124Z,15.10
2018-12-15T06:22:56.792Z,24.67
2018-12-15T06:25:24.448Z,18.90
2018-12-15T06:27:52.107Z,26.47
2018-12-15T06:30:19.699Z,20.60
2018-12-15T06:32:47.335Z,27.87
2018-12-15T06:35:14.994Z,25.50
2018-12-15T06:37:42.716Z,25.73
2018-12-15T06:40:10.428Z,24.97
2018-12-15T06:42:38.034Z,21.10
2018-12-15T06:45:06.054Z,18.70
2018-12-15T06:47:33.729Z,24.00
2018-12-15T06:50:01.390Z,22.23
2018-12-15T06:52:29.052Z,35.33
2018-12-15T06:54:56.717Z,23.47
2018-12-15T06:57:24.366Z,22.60
2018-12-15T06:59:52.041Z,20.20
2018-12-15T07:02:19.703Z,24.70
2018-12-15T07:04:47.455Z,27.73
2018-12-15T07:07:15.048Z,21.83
2018-12-15T07:09:42.657Z,21.23
2018-12-15T07:12:11.101Z,21.00
2018-12-15T07:14:38.727Z,18.30
2018-12-15T07:17:06.705Z,18.83
2018-12-15T07:19:34.358Z,30.40
2018-12-15T07:22:02.023Z,20.83
2018-12-15T07:24:29.636Z,21.20
2018-12-15T07:26:57.236Z,19.00
2018-12-15T07:29:24.916Z,21.57
2018-12-15T07:31:52.570Z,28.07
2018-12-15T07:34:20.246Z,21.10
2018-12-15T07:36:47.892Z,25.30
2018-12-15T07:39:15.559Z,33.93
2018-12-15T07:41:43.233Z,21.87
2018-12-15T07:44:10.892Z,26.83
2018-12-15T07:46:38.557Z,31.10
2018-12-15T07:49:06.308Z,25.33
2018-12-15T07:51:33.989Z,19.00
2018-12-15T07:54:01.583Z,23.27
2018-12-15T07:56:29.198Z,27.40
2018-12-15T07:58:56.796Z,24.87
2018-12-15T08:01:24.415Z,23.90
2018-12-15T08:03:52.087Z,21.77
2018-12-15T08:06:19.709Z,19.47
2018-12-15T08:08:47.336Z,24.60
2018-12-15T08:11:20.534Z,23.83
2018-12-15T08:13:48.310Z,22.47
2018-12-15T08:16:15.932Z,22.67
2018-12-15T08:18:43.590Z,17.23
2018-12-15T08:21:11.368Z,22.50
2018-12-15T08:23:39.023Z,16.80
2018-12-15T08:26:06.683Z,20.00
2018-12-15T08:28:34.357Z,22.53
2018-12-15T08:31:01.963Z,21.00
2018-12-15T08:33:29.572Z,24.83
2018-12-15T08:35:57.235Z,20.17
2018-12-15T08:38:24.819Z,26.27
2018-12-15T08:40:52.477Z,24.43
2018-12-15T08:43:20.129Z,21.50
2018-12-15T08:45:47.745Z,23.30
2018-12-15T08:48:15.327Z,20.37
2018-12-15T08:50:43.006Z,25.80
2018-12-15T08:53:10.676Z,22.63
2018-12-15T08:55:38.337Z,24.73
2018-12-15T08:58:06.108Z,18.73
2018-12-15T09:00:33.759Z,24.00
2018-12-15T09:03:01.826Z,21.70
2018-12-15T09:05:29.416Z,19.20
2018-12-15T09:07:57.064Z,19.13
2018-12-15T09:10:24.650Z,23.93
2018-12-15T09:12:52.288Z,25.90
2018-12-15T09:15:19.947Z,19.00
2018-12-15T09:17:47.607Z,21.23
2018-12-15T09:20:15.280Z,17.00
2018-12-15T09:22:42.940Z,18.73
2018-12-15T09:25:10.602Z,23.77
2018-12-15T09:27:38.224Z,22.57
2018-12-15T09:30:06.442Z,21.47
2018-12-15T09:32:34.047Z,26.43
2018-12-15T09:35:01.657Z,21.30
2018-12-15T09:37:29.279Z,22.03
2018-12-15T09:39:56.989Z,23.20
2018-12-15T09:42:24.668Z,28.80
2018-12-15T09:44:52.261Z,24.43
2018-12-15T09:47:19.991Z,17.53
2018-12-15T09:49:47.648Z,19.80
2018-12-15T09:52:15.282Z,17.10
2018-12-15T09:54:42.969Z,21.93
2018-12-15T09:57:10.621Z,25.63
2018-12-15T09:59:38.706Z,24.30
2018-12-15T10:02:06.355Z,23.43
2018-12-15T10:04:34.113Z,19.50
2018-12-15T10:07:01.713Z,23.50
2018-12-15T10:09:29.330Z,22.23
2018-12-15T10:11:56.915Z,24.73
2018-12-15T10:14:24.577Z,31.10
2018-12-15T10:16:52.308Z,19.67
2018-12-15T10:19:24.215Z,27.57
2018-12-15T10:21:49.603Z,21.77
2018-12-15T10:24:17.272Z,24.77
2018-12-15T10:26:44.936Z,18.50
2018-12-15T10:29:14.530Z,30.17
2018-12-15T10:34:48.358Z,23.80
2018-12-15T10:37:16.038Z,21.50
2018-12-15T10:39:43.701Z,21.27
2018-12-15T10:42:11.365Z,20.73
2018-12-15T10:44:39.115Z,21.30
2018-12-15T10:47:06.793Z,20.13
2018-12-15T10:49:34.547Z,21.00
2018-12-15T10:52:02.221Z,18.90
2018-12-15T10:54:29.885Z,15.73
2018-12-15T10:56:57.527Z,13.63
2018-12-15T10:59:25.199Z,19.40
2018-12-15T11:01:52.879Z,16.57
2018-12-15T11:04:20.521Z,20.27
2018-12-15T11:06:48.198Z,19.93
2018-12-15T11:09:15.863Z,19.27
2018-12-15T11:11:43.525Z,18.93
2018-12-15T11:14:11.250Z,19.17
2018-12-15T11:16:39.038Z,19.70
2018-12-15T11:19:06.717Z,20.33
2018-12-15T11:21:34.379Z,20.50
2018-12-15T11:24:02.255Z,23.20
2018-12-15T11:26:29.903Z,25.60
2018-12-15T11:28:57.583Z,18.07
2018-12-15T11:31:25.236Z,20.53
2018-12-15T11:33:52.891Z,19.13
2018-12-15T11:36:20.549Z,22.93
2018-12-15T11:38:48.149Z,20.60
2018-12-15T11:41:15.760Z,24.53
2018-12-15T11:43:43.344Z,27.33
2018-12-15T11:46:10.943Z,22.13
2018-12-15T11:48:38.592Z,21.40
2018-12-15T11:51:06.224Z,22.60
2018-12-15T11:53:33.887Z,23.73
2018-12-15T11:56:01.547Z,21.50
2018-12-15T11:58:29.215Z,24.30
2018-12-15T12:00:56.868Z,25.80
2018-12-15T12:03:24.464Z,25.53
2018-12-15T12:05:52.132Z,21.87
2018-12-15T12:08:19.762Z,30.03
2018-12-15T12:10:47.433Z,22.73
2018-12-15T12:13:15.089Z,20.07
2018-12-15T12:15:42.754Z,19.87
2018-12-15T12:18:10.364Z,20.03
2018-12-15T12:20:38.392Z,17.50
2018-12-15T12:23:06.142Z,22.40
2018-12-15T12:25:33.743Z,24.93
2018-12-15T12:28:01.347Z,33.63
2018-12-15T12:30:28.947Z,19.33
2018-12-15T12:32:59.302Z,20.83
2018-12-15T12:35:26.212Z,21.33
2018-12-15T12:37:53.876Z,23.80
2018-12-15T12:40:21.458Z,19.03
2018-12-15T12:42:49.097Z,18.50
2018-12-15T12:45:16.755Z,25.80
2018-12-15T12:47:44.426Z,22.67
2018-12-15T12:50:12.174Z,24.93
2018-12-15T12:52:39.939Z,21.80
2018-12-15T12:55:07.723Z,23.23
2018-12-15T12:57:35.385Z,18.67
2018-12-15T13:00:03.045Z,23.13
2018-12-15T13:02:30.655Z,22.30
2018-12-15T13:04:58.235Z,21.53
2018-12-15T13:07:25.934Z,21.90
2018-12-15T13:09:53.582Z,21.07
2018-12-15T13:12:21.247Z,21.20
2018-12-15T13:14:48.911Z,24.50
2018-12-15T13:17:16.588Z,24.90
2018-12-15T13:19:44.240Z,20.27
2018-12-15T13:22:11.998Z,22.03
2018-12-15T13:24:39.644Z,25.27
2018-12-15T13:27:07.244Z,27.73
2018-12-15T13:29:34.904Z,21.13
2018-12-15T13:32:02.565Z,23.00
2018-12-15T13:34:30.967Z,30.17
2018-12-15T13:36:58.590Z,23.33
2018-12-15T13:39:26.200Z,22.90
2018-12-15T13:41:53.787Z,20.30
2018-12-15T13:44:21.679Z,24.73
2018-12-15T13:46:49.655Z,24.07
2018-12-15T13:49:17.258Z,24.67
2018-12-15T13:51:44.836Z,33.97
2018-12-15T13:54:12.544Z,22.17
2018-12-15T13:56:40.216Z,20.23
2018-12-15T13:59:07.876Z,19.47
2018-12-15T14:01:35.729Z,21.13
2018-12-15T14:04:03.402Z,24.13
2018-12-15T14:06:31.063Z,23.43
2018-12-15T14:08:58.970Z,26.20
2018-12-15T14:11:26.695Z,25.23
2018-12-15T14:13:54.309Z,31.87
2018-12-15T14:16:21.920Z,24.90
2018-12-15T14:18:49.590Z,27.40
2018-12-15T14:21:17.355Z,33.93
2018-12-15T14:23:45.209Z,25.60
2018-12-15T14:26:12.804Z,23.77
2018-12-15T14:28:40.396Z,22.83
2018-12-15T14:31:08.099Z,24.50
2018-12-15T14:33:35.739Z,25.83
2018-12-15T14:36:03.349Z,26.63
2018-12-15T14:38:30.996Z,25.90
2018-12-15T14:40:58.647Z,23.10
2018-12-15T14:43:26.321Z,27.90
2018-12-15T14:45:53.969Z,24.80
2018-12-15T14:48:21.640Z,25.20
2018-12-15T14:50:49.408Z,28.70
2018-12-15T14:53:17.073Z,28.20
2018-12-15T14:55:44.722Z,26.67
2018-12-15T14:58:12.404Z,33.23
2018-12-15T15:00:40.014Z,30.83
2018-12-15T15:03:07.821Z,24.30
2018-12-15T15:05:35.493Z,29.20
2018-12-15T15:08:03.147Z,23.17
2018-12-15T15:10:30.821Z,27.63
2018-12-15T15:12:58.481Z,36.23
2018-12-15T15:15:26.135Z,27.40
2018-12-15T15:17:53.805Z,28.13
2018-12-15T15:20:21.554Z,23.50
2018-12-15T15:22:49.148Z,26.80
2018-12-15T15:25:16.760Z,30.03
2018-12-15T15:27:44.357Z,27.43
2018-12-15T15:30:12.016Z,22.23
2018-12-15T15:32:39.671Z,26.73
2018-12-15T15:35:07.432Z,24.50
2018-12-15T15:37:35.098Z,28.77
2018-12-15T15:40:02.772Z,30.60
2018-12-15T15:42:30.423Z,28.00
2018-12-15T15:44:58.092Z,24.13
2018-12-15T15:47:25.752Z,32.53
2018-12-15T15:49:53.415Z,31.10
2018-12-15T15:52:21.143Z,31.80
2018-12-15T15:54:48.859Z,25.20
2018-12-15T15:57:16.513Z,35.07
2018-12-15T15:59:44.175Z,34.50
2018-12-15T16:02:11.831Z,31.87
2018-12-15T16:04:39.491Z,27.93
2018-12-15T16:07:07.164Z,40.03
2018-12-15T16:09:34.823Z,31.67
2018-12-15T16:12:02.491Z,34.00
2018-12-15T16:14:30.143Z,46.30
2018-12-15T16:16:57.816Z,32.90
2018-12-15T16:19:25.470Z,45.17
2018-12-15T16:21:53.145Z,34.10
2018-12-15T16:24:20.737Z,29.07
2018-12-15T16:26:48.348Z,30.07
2018-12-15T16:29:15.927Z,26.77
2018-12-15T16:31:44.263Z,28.10
2018-12-15T16:34:11.976Z,25.40
2018-12-15T16:36:39.627Z,26.67
2018-12-15T16:39:07.351Z,29.50
2018-12-15T16:41:35.064Z,30.33
2018-12-15T16:44:02.701Z,28.20
2018-12-15T16:46:30.583Z,27.50
2018-12-15T16:48:58.253Z,22.97
2018-12-15T16:51:25.991Z,23.40
2018-12-15T16:53:53.675Z,23.87
2018-12-15T16:56:21.387Z,29.50
2018-12-15T16:58:49.014Z,26.77
2018-12-15T17:01:16.658Z,23.50
2018-12-15T17:03:44.263Z,21.83
2018-12-15T17:06:11.901Z,22.33
2018-12-15T17:08:39.557Z,29.50
2018-12-15T17:11:07.220Z,25.90
2018-12-15T17:13:34.975Z,26.77
2018-12-15T17:16:02.650Z,23.00
2018-12-15T17:18:30.303Z,27.83
2018-12-15T17:20:57.965Z,28.80
2018-12-15T17:23:25.627Z,29.00
2018-12-15T17:25:53.386Z,25.33
2018-12-15T17:28:21.063Z,23.73
2018-12-15T17:30:48.728Z,29.40
2018-12-15T17:33:16.391Z,29.40
2018-12-15T17:35:44.043Z,27.00
2018-12-15T17:38:11.721Z,28.17
2018-12-15T17:40:39.371Z,28.47
2018-12-15T17:43:06.975Z,24.53
2018-12-15T17:45:34.603Z,31.83
2018-12-15T17:48:02.468Z,26.43
2018-12-15T17:50:30.132Z,24.13
2018-12-15T17:52:57.786Z,24.73
2018-12-15T17:55:25.451Z,24.87
2018-12-15T17:57:53.127Z,23.73
2018-12-15T18:00:20.940Z,28.07
2018-12-15T18:02:48.591Z,28.10
2018-12-15T18:05:16.181Z,23.97
2018-12-15T18:07:43.859Z,32.70
2018-12-15T18:10:11.497Z,27.40
2018-12-15T18:12:39.194Z,28.60
2018-12-15T18:15:07.571Z,30.50
2018-12-15T18:17:35.272Z,29.53
2018-12-15T18:20:03.147Z,30.43
2018-12-15T18:22:30.866Z,28.87
2018-12-15T18:24:58.530Z,34.00
2018-12-15T18:27:26.201Z,27.30
2018-12-15T18:29:54.069Z,27.10
2018-12-15T18:32:21.675Z,32.53
2018-12-15T18:34:49.288Z,40.30
2018-12-15T18:37:16.882Z,32.90
2018-12-15T18:39:44.517Z,30.40
2018-12-15T18:42:12.170Z,26.70
2018-12-15T18:44:39.845Z,30.77
2018-12-15T18:47:07.512Z,32.17
2018-12-15T18:49:35.160Z,34.90
2018-12-15T18:52:02.766Z,35.47
2018-12-15T18:54:30.497Z,35.63
2018-12-15T18:56:58.135Z,34.63
2018-12-15T18:59:25.985Z,38.33
2018-12-15T19:01:53.665Z,37.37
2018-12-15T19:04:21.346Z,37.07
2018-12-15T19:06:49.019Z,32.20
2018-12-15T19:09:16.677Z,31.80
2018-12-15T19:11:44.267Z,36.40
2018-12-15T19:14:11.902Z,41.70
2018-12-15T19:16:39.497Z,42.57
2018-12-15T19:19:07.215Z,43.13
2018-12-15T19:21:34.813Z,45.20
2018-12-15T19:24:02.422Z,53.33
2018-12-15T19:26:30.103Z,51.50
2018-12-15T19:28:57.720Z,72.43
2018-12-15T19:31:25.326Z,85.90
2018-12-15T19:33:53.099Z,60.85
2018-12-15T19:36:20.755Z,63.53
2018-12-15T19:38:48.425Z,64.27
2018-12-15T19:41:16.091Z,58.17
2018-12-15T19:43:43.744Z,69.20
2018-12-15T19:46:11.403Z,59.70
2018-12-15T19:48:39.164Z,59.10
2018-12-15T19:51:06.840Z,56.53
2018-12-15T19:53:34.740Z,53.67
2018-12-15T19:56:02.766Z,61.87
2018-12-15T19:58:30.532Z,67.90
2018-12-15T20:00:58.369Z,62.30
2018-12-15T20:03:26.267Z,57.90
2018-12-15T20:05:54.011Z,58.33
2018-12-15T20:08:21.637Z,69.17
2018-12-15T20:10:49.260Z,68.03
2018-12-15T20:13:16.933Z,60.23
2018-12-15T20:15:44.595Z,74.50
2018-12-15T20:18:12.188Z,65.57
2018-12-15T20:20:39.809Z,54.77
2018-12-15T20:23:07.588Z,56.50
2018-12-15T20:25:35.721Z,59.93
2018-12-15T20:28:03.304Z,59.90
2018-12-15T20:30:30.975Z,64.33
2018-12-15T20:32:58.943Z,56.57
2018-12-15T20:35:26.811Z,65.93
2018-12-15T20:37:54.492Z,62.13
2018-12-15T20:40:22.139Z,62.97
2018-12-15T20:42:49.837Z,65.47
2018-12-15T20:45:17.472Z,61.37
2018-12-15T20:47:45.141Z,60.27
2018-12-15T20:50:12.798Z,58.13
2018-12-15T20:52:40.384Z,61.20
2018-12-15T20:55:08.029Z,61.53
2018-12-15T20:57:35.671Z,77.93
2018-12-15T21:00:04.259Z,65.13
2018-12-15T21:02:31.933Z,73.60
2018-12-15T21:04:59.631Z,72.57
2018-12-15T21:07:27.232Z,79.23
2018-12-15T21:09:54.848Z,75.20
2018-12-15T21:12:22.431Z,76.63
2018-12-15T21:14:50.107Z,78.03
2018-12-15T21:17:17.688Z,77.73
2018-12-15T21:19:48.061Z,81.90
2018-12-15T21:22:15.180Z,75.83
2018-12-15T21:24:42.780Z,79.03
2018-12-15T21:27:10.405Z,77.33
2018-12-15T21:29:38.071Z,77.07
2018-12-15T21:32:05.733Z,63.47
2018-12-15T21:34:33.342Z,72.60
2018-12-15T21:37:00.970Z,65.57
2018-12-15T21:39:28.600Z,69.03
2018-12-15T21:41:56.272Z,66.37
2018-12-15T21:44:23.966Z,78.60
2018-12-15T21:46:51.601Z,64.50
2018-12-15T21:49:19.268Z,76.33
2018-12-15T21:51:46.875Z,66.57
2018-12-15T21:54:14.455Z,64.33
2018-12-15T21:56:42.152Z,88.17
2018-12-15T21:59:09.753Z,76.80
2018-12-15T22:01:37.481Z,74.30
2018-12-15T22:04:05.148Z,68.57
2018-12-15T22:06:32.804Z,68.47
2018-12-15T22:09:00.382Z,79.63
2018-12-15T22:11:28.029Z,72.23
2018-12-15T22:13:55.683Z,72.97
2018-12-15T22:16:23.352Z,59.67
2018-12-15T22:18:51.010Z,67.60
2018-12-15T22:21:18.684Z,75.53
2018-12-15T22:23:46.279Z,68.57
2018-12-15T22:26:13.998Z,65.20
2018-12-15T22:28:41.662Z,63.60
2018-12-15T22:31:09.267Z,61.20
2018-12-15T22:33:36.883Z,78.47
2018-12-15T22:36:04.561Z,63.80
2018-12-15T22:38:32.196Z,62.03
2018-12-15T22:40:59.870Z,59.20
2018-12-15T22:43:27.535Z,73.97
2018-12-15T22:45:55.209Z,62.90
2018-12-15T22:48:22.858Z,74.03
2018-12-15T22:50:50.532Z,68.93
2018-12-15T22:53:18.193Z,70.90
2018-12-15T22:55:45.856Z,62.90
2018-12-15T22:58:13.513Z,76.63
2018-12-15T23:03:39.567Z,66.33
2018-12-15T23:06:07.216Z,67.00
2018-12-15T23:08:34.895Z,65.73
2018-12-15T23:11:02.643Z,69.63
2018-12-15T23:13:30.223Z,61.17
2018-12-15T23:15:57.985Z,64.17
2018-12-15T23:18:26.281Z,64.83
2018-12-15T23:20:53.915Z,60.60
2018-12-15T23:23:21.589Z,63.10
2018-12-15T23:25:49.205Z,63.30
2018-12-15T23:28:16.793Z,69.37
2018-12-15T23:30:44.463Z,61.37
2018-12-15T23:33:12.137Z,61.50
2018-12-15T23:35:39.800Z,68.63
2018-12-15T23:38:07.554Z,62.43
2018-12-15T23:40:35.136Z,61.37
2018-12-15T23:43:02.785Z,64.97
2018-12-15T23:45:30.851Z,60.77
2018-12-15T23:47:58.511Z,70.80
2018-12-15T23:50:26.183Z,58.07
2018-12-15T23:52:53.838Z,64.50
2018-12-15T23:55:21.513Z,58.80
2018-12-15T23:57:49.167Z,68.17
